Time;durP1;ratioP1;P1;durP2;ratioP2;P2;SDS_P1;SDS_P2;PMS_P1;PMS_P2;Temp;Humidity;BMP_temperature;BMP_pressure;BME280_temperature;BME280_humidity;BME280_pressure;Samples;Min_cycle;Max_cycle;Signal;HPM_P1;HPM_P2
2021/07/10 00:01:05;;;;;;;4.28;1.30;;;;;;;19.08;71.64;100075.95;1705431;82;23194;-54
2021/07/10 00:03:31;;;;;;;3.87;1.20;;;;;;;19.06;71.73;100079.30;1708212;82;21733;-54
2021/07/10 00:05:58;;;;;;;8.60;1.80;;;;;;;19.05;71.79;100085.77;1703245;82;21186;-53
2021/07/10 00:08:24;;;;;;;1.62;1.00;;;;;;;19.03;71.75;100085.01;1705925;82;21060;-53
2021/07/10 00:10:52;;;;;;;3.37;1.20;;;;;;;19.00;71.70;100083.38;1701673;82;21044;-54
2021/07/10 00:13:20;;;;;;;3.02;1.20;;;;;;;18.97;71.79;100078.16;1707213;82;21489;-54
2021/07/10 00:15:46;;;;;;;8.45;1.75;;;;;;;18.97;71.94;100075.95;1716264;81;21667;-55
2021/07/10 00:18:13;;;;;;;2.40;1.07;;;;;;;18.95;72.09;100074.70;1726976;80;21105;-53
2021/07/10 00:20:41;;;;;;;3.02;1.60;;;;;;;18.96;72.03;100075.08;1727644;82;21070;-54
2021/07/10 00:23:09;;;;;;;7.85;1.90;;;;;;;18.96;71.94;100079.66;1725299;81;21065;-55
2021/07/10 00:25:36;;;;;;;5.20;1.98;;;;;;;18.93;71.89;100081.25;1724227;81;23026;-54
2021/07/10 00:28:03;;;;;;;5.17;1.82;;;;;;;18.88;71.99;100072.91;1725297;81;21231;-53
2021/07/10 00:30:30;;;;;;;4.78;1.82;;;;;;;18.85;72.13;100069.08;1721745;82;21113;-55
2021/07/10 00:32:56;;;;;;;2.02;1.00;;;;;;;18.82;72.17;100066.58;1722974;82;21079;-54
2021/07/10 00:35:23;;;;;;;4.62;1.15;;;;;;;18.81;72.20;100063.97;1726482;81;21125;-54
2021/07/10 00:37:49;;;;;;;6.75;1.55;;;;;;;18.79;72.18;100058.66;1727161;81;21613;-54
2021/07/10 00:40:17;;;;;;;3.45;1.52;;;;;;;18.78;72.25;100056.05;1724637;81;21025;-53
2021/07/10 00:42:45;;;;;;;9.08;1.32;;;;;;;18.76;72.34;100057.52;1724688;82;21084;-55
2021/07/10 00:45:11;;;;;;;5.47;1.22;;;;;;;18.75;72.39;100059.86;1724848;82;21093;-54
2021/07/10 00:47:39;;;;;;;4.45;1.70;;;;;;;18.75;72.21;100056.27;1726657;81;21566;-54
2021/07/10 00:50:13;;;;;;;1.90;1.00;;;;;;;18.73;72.13;100059.11;1726665;82;22293;-54
2021/07/10 00:52:40;;;;;;;;;;;;;;;18.70;72.07;100056.63;1727914;82;21678;-54
2021/07/10 00:55:08;;;;;;;2.33;1.05;;;;;;;18.68;72.00;100058.60;1726928;80;20335;-54
2021/07/10 00:57:37;;;;;;;2.00;1.02;;;;;;;18.64;71.99;100054.84;1727611;81;21069;-54
2021/07/10 01:00:09;;;;;;;3.30;1.35;;;;;;;18.61;71.97;100051.89;1724179;81;21063;-53
2021/07/10 01:02:36;;;;;;;3.75;1.40;;;;;;;18.59;71.97;100048.40;1726652;81;21105;-53
2021/07/10 01:05:08;;;;;;;3.05;1.95;;;;;;;18.59;71.97;100044.80;1725366;82;21050;-54
2021/07/10 01:07:36;;;;;;;2.10;1.40;;;;;;;18.57;71.96;100044.91;1726065;81;21103;-53
2021/07/10 01:10:03;;;;;;;1.85;1.35;;;;;;;18.54;72.01;100040.52;1726211;82;21017;-53
2021/07/10 01:12:31;;;;;;;3.40;1.40;;;;;;;18.52;72.10;100041.16;1723603;81;21129;-53
2021/07/10 01:14:57;;;;;;;5.35;1.40;;;;;;;18.50;72.21;100039.03;1726648;82;21117;-54
2021/07/10 01:17:25;;;;;;;3.92;1.07;;;;;;;18.49;72.23;100033.70;1725871;81;21034;-54
2021/07/10 01:20:02;;;;;;;1.87;1.30;;;;;;;18.48;72.30;100036.91;1727983;82;21440;-53
2021/07/10 01:22:28;;;;;;;6.28;1.27;;;;;;;18.48;72.30;100029.22;1728766;82;21062;-53
2021/07/10 01:24:55;;;;;;;1.40;1.30;;;;;;;18.48;72.29;100032.83;1726278;81;21538;-53
2021/07/10 01:27:21;;;;;;;2.45;1.35;;;;;;;18.46;72.21;100032.06;1721000;82;21709;-53
2021/07/10 01:29:48;;;;;;;3.90;1.25;;;;;;;18.45;72.27;100035.80;1731759;82;20913;-53
2021/07/10 01:32:17;;;;;;;2.65;1.35;;;;;;;18.44;72.29;100034.55;1730413;81;21055;-54
2021/07/10 01:34:48;;;;;;;4.58;1.40;;;;;;;18.41;72.30;100030.20;1725387;81;21657;-53
2021/07/10 01:37:15;;;;;;;5.70;1.30;;;;;;;18.39;72.40;100037.61;1726093;81;21096;-53
2021/07/10 01:39:42;;;;;;;1.40;1.30;;;;;;;18.39;72.51;100032.66;1726007;82;21150;-54
2021/07/10 01:42:09;;;;;;;3.22;1.35;;;;;;;18.37;72.46;100025.95;1724711;82;21050;-55
2021/07/10 01:44:38;;;;;;;1.20;1.10;;;;;;;18.36;72.51;100030.18;1723641;82;21086;-55
2021/07/10 01:47:05;;;;;;;2.77;1.25;;;;;;;18.35;72.60;100027.08;1690821;83;21110;-56
2021/07/10 01:49:32;;;;;;;1.70;1.60;;;;;;;18.34;72.65;100024.84;1725835;81;21687;-55
2021/07/10 01:51:58;;;;;;;1.40;1.30;;;;;;;18.33;72.68;100024.45;1728101;82;21371;-55
2021/07/10 01:54:25;;;;;;;3.15;1.80;;;;;;;18.34;72.77;100032.14;1725966;81;21079;-55
2021/07/10 01:56:52;;;;;;;1.92;1.82;;;;;;;18.31;72.77;100025.06;1722578;82;21145;-55
2021/07/10 01:59:18;;;;;;;5.00;1.98;;;;;;;18.32;72.76;100025.93;1728600;82;20943;-55
2021/07/10 02:01:47;;;;;;;5.15;2.00;;;;;;;18.30;72.78;100024.68;1727712;82;20959;-55
2021/07/10 02:04:15;;;;;;;2.00;1.90;;;;;;;18.29;72.87;100016.13;1725176;82;21113;-55
2021/07/10 02:06:43;;;;;;;2.15;1.95;;;;;;;18.30;72.93;100019.72;1729067;81;21324;-55
2021/07/10 02:09:10;;;;;;;1.47;1.00;;;;;;;18.28;72.85;100015.77;1729159;81;20959;-55
2021/07/10 02:11:38;;;;;;;1.42;1.30;;;;;;;18.27;72.86;100015.89;1707026;82;21430;-55
2021/07/10 02:14:04;;;;;;;1.95;1.20;;;;;;;18.26;72.90;100016.37;1729460;81;21480;-55
2021/07/10 02:16:32;;;;;;;2.10;1.22;;;;;;;18.26;72.94;100012.30;1728268;81;21445;-55
2021/07/10 02:18:59;;;;;;;4.08;2.52;;;;;;;18.26;73.01;100015.02;1728031;81;20906;-56
2021/07/10 02:21:25;;;;;;;2.45;1.52;;;;;;;18.28;73.04;100013.55;1732017;81;21082;-56
2021/07/10 02:23:51;;;;;;;5.55;2.17;;;;;;;18.30;73.04;100014.27;1729256;82;20915;-55
2021/07/10 02:26:18;;;;;;;4.92;1.77;;;;;;;18.30;73.01;100008.82;1728565;82;20951;-56
2021/07/10 02:28:45;;;;;;;3.92;1.62;;;;;;;18.30;73.01;100012.91;1728879;82;21433;-55
2021/07/10 02:31:12;;;;;;;3.08;1.35;;;;;;;18.28;73.08;100013.05;1731139;81;21013;-55
2021/07/10 02:33:39;;;;;;;8.65;1.45;;;;;;;18.26;73.17;100021.83;1729109;81;21051;-55
2021/07/10 02:36:05;;;;;;;4.58;1.52;;;;;;;18.25;73.21;100021.45;1726311;82;21119;-55
2021/07/10 02:38:32;;;;;;;7.00;1.90;;;;;;;18.24;73.33;100011.53;1724994;82;21046;-55
2021/07/10 02:40:58;;;;;;;1.35;1.20;;;;;;;18.24;73.42;100006.57;1726421;81;21682;-56
2021/07/10 02:43:24;;;;;;;2.70;1.32;;;;;;;18.25;73.50;100009.67;1724410;81;21489;-55
2021/07/10 02:45:50;;;;;;;1.32;1.22;;;;;;;18.28;73.57;100012.18;1724408;81;21595;-55
2021/07/10 02:48:18;;;;;;;1.67;1.27;;;;;;;18.30;73.68;100015.14;1682594;82;21078;-55
2021/07/10 02:50:47;;;;;;;1.60;1.50;;;;;;;18.33;73.74;100014.05;1724759;81;21491;-55
2021/07/10 02:53:15;;;;;;;5.20;1.60;;;;;;;18.35;73.85;100006.64;1724904;81;21112;-55
2021/07/10 02:55:43;;;;;;;1.52;1.30;;;;;;;18.37;73.94;100008.76;1724913;82;21041;-56
2021/07/10 02:58:09;;;;;;;4.60;1.42;;;;;;;18.39;74.06;99999.95;1728250;81;21425;-54
2021/07/10 03:00:35;;;;;;;2.58;1.00;;;;;;;18.41;74.14;100015.20;1725842;82;21038;-56
2021/07/10 03:03:01;;;;;;;2.12;1.25;;;;;;;18.43;74.25;100013.23;1722645;82;21134;-55
2021/07/10 03:05:28;;;;;;;2.37;1.20;;;;;;;18.48;74.37;100011.02;1721762;81;21171;-55
2021/07/10 03:07:55;;;;;;;2.10;1.15;;;;;;;18.55;74.55;100010.05;1725098;82;21036;-55
2021/07/10 03:10:25;;;;;;;2.08;1.30;;;;;;;18.61;74.68;100008.76;1723640;82;21327;-56
2021/07/10 03:12:56;;;;;;;2.70;1.32;;;;;;;18.67;74.84;100005.55;1726569;82;22114;-55
2021/07/10 03:15:23;;;;;;;5.65;1.35;;;;;;;18.73;74.94;100013.24;1687323;82;21098;-54
2021/07/10 03:17:49;;;;;;;3.42;1.70;;;;;;;18.77;74.90;100014.27;1674646;83;21799;-55
2021/07/10 03:20:21;;;;;;;5.60;1.60;;;;;;;18.81;75.07;100010.78;1734402;81;21069;-56
2021/07/10 03:22:48;;;;;;;3.05;1.20;;;;;;;18.87;75.25;99996.69;1733073;81;21057;-55
2021/07/10 03:25:15;;;;;;;6.75;1.25;;;;;;;18.94;75.38;100003.40;1732030;81;21544;-55
2021/07/10 03:27:42;;;;;;;4.05;2.33;;;;;;;18.99;75.49;100009.34;1733586;81;21056;-56
2021/07/10 03:30:11;;;;;;;2.83;1.10;;;;;;;19.04;75.61;100002.18;1737930;81;21402;-55
2021/07/10 03:32:40;;;;;;;2.08;1.20;;;;;;;19.11;75.73;99996.11;1732885;81;21029;-56
2021/07/10 03:35:09;;;;;;;2.17;1.17;;;;;;;19.19;75.83;99994.13;1733802;81;21088;-55
2021/07/10 03:37:35;;;;;;;2.40;1.60;;;;;;;19.27;75.98;99997.98;1733226;81;21468;-56
2021/07/10 03:40:04;;;;;;;3.45;1.45;;;;;;;19.37;76.23;99994.52;1730986;81;22348;-56
2021/07/10 03:42:31;;;;;;;4.67;1.40;;;;;;;19.44;76.41;99996.62;1733210;81;21081;-56
2021/07/10 03:44:57;;;;;;;2.90;1.67;;;;;;;19.50;76.57;99997.52;1732527;81;21105;-55
2021/07/10 03:47:24;;;;;;;2.27;1.02;;;;;;;19.57;76.66;99998.75;1732693;81;21141;-55
2021/07/10 03:49:50;;;;;;;6.60;1.77;;;;;;;19.65;76.73;99988.56;1733731;81;21085;-55
2021/07/10 03:52:16;;;;;;;5.53;1.42;;;;;;;19.74;76.94;99989.67;1732556;80;21130;-55
2021/07/10 03:54:43;;;;;;;3.67;1.82;;;;;;;19.84;77.19;99987.42;1732642;81;22653;-55
2021/07/10 03:57:09;;;;;;;3.60;1.65;;;;;;;19.94;77.11;99982.94;1732336;81;21541;-56
2021/07/10 03:59:35;;;;;;;2.87;2.05;;;;;;;20.05;77.04;99988.88;1732205;81;21043;-56
2021/07/10 04:02:03;;;;;;;5.10;2.62;;;;;;;20.16;76.76;99983.89;1732668;81;21085;-55
2021/07/10 04:04:29;;;;;;;9.23;2.83;;;;;;;20.26;76.52;99980.23;1736054;81;21485;-55
2021/07/10 04:06:56;;;;;;;3.65;2.47;;;;;;;20.36;76.34;99984.45;1736884;81;21107;-55
2021/07/10 04:09:24;;;;;;;3.92;1.77;;;;;;;20.45;75.93;99981.44;1735590;81;21029;-55
2021/07/10 04:11:50;;;;;;;5.08;1.92;;;;;;;20.56;75.67;99978.16;1734803;81;21119;-55
2021/07/10 04:14:17;;;;;;;3.60;2.27;;;;;;;20.65;75.05;99978.74;1735509;81;21155;-55
2021/07/10 04:16:43;;;;;;;6.47;1.90;;;;;;;20.76;74.72;99973.19;1734888;81;21107;-55
2021/07/10 04:19:10;;;;;;;2.52;1.72;;;;;;;20.89;74.38;99982.58;1740090;81;22052;-55
2021/07/10 04:21:38;;;;;;;4.03;2.02;;;;;;;21.02;74.12;99968.67;1736884;81;21505;-56
2021/07/10 04:24:05;;;;;;;10.18;2.17;;;;;;;21.13;73.36;99965.86;1739190;81;21066;-56
2021/07/10 04:26:31;;;;;;;4.95;1.60;;;;;;;21.24;72.82;99967.19;1737610;81;21814;-56
2021/07/10 04:28:57;;;;;;;6.40;2.12;;;;;;;21.35;71.92;99960.23;1738308;80;21093;-56
2021/07/10 04:31:24;;;;;;;4.22;1.42;;;;;;;21.45;71.13;99962.52;1737912;81;21802;-56
2021/07/10 04:33:50;;;;;;;5.58;1.75;;;;;;;21.56;70.35;99957.45;1705771;83;21581;-55
2021/07/10 04:36:16;;;;;;;3.67;1.52;;;;;;;21.67;69.35;99958.72;1701755;83;21101;-55
2021/07/10 04:38:44;;;;;;;2.85;1.75;;;;;;;21.79;68.39;99957.58;1706508;83;21045;-56
2021/07/10 04:41:10;;;;;;;4.75;1.30;;;;;;;21.92;67.72;99957.34;1681197;83;21103;-56
2021/07/10 04:43:37;;;;;;;6.28;1.52;;;;;;;22.04;66.84;99958.09;1673508;85;21141;-55
2021/07/10 04:46:04;;;;;;;3.25;1.10;;;;;;;22.14;66.01;99948.88;1677906;83;21157;-56
2021/07/10 04:48:30;;;;;;;1.72;1.25;;;;;;;22.28;64.94;99943.50;1683069;83;21117;-56
2021/07/10 04:50:57;;;;;;;4.70;1.77;;;;;;;22.39;64.68;99939.73;1683983;83;21430;-56
2021/07/10 04:53:25;;;;;;;7.45;2.30;;;;;;;22.48;64.52;99940.23;1684003;84;21087;-55
2021/07/10 04:55:51;;;;;;;8.23;1.80;;;;;;;22.57;64.61;99940.23;1685484;84;22447;-58
2021/07/10 04:58:18;;;;;;;3.80;1.95;;;;;;;22.65;64.27;99944.48;1679685;83;21081;-57
2021/07/10 05:00:44;;;;;;;2.98;2.00;;;;;;;22.74;63.65;99942.77;1672169;85;21102;-56
2021/07/10 05:03:11;;;;;;;6.33;1.65;;;;;;;22.84;63.13;99948.25;1671272;84;21141;-57
2021/07/10 05:05:39;;;;;;;4.97;1.67;;;;;;;22.92;62.32;99936.02;1677008;83;21510;-55
2021/07/10 05:08:06;;;;;;;5.70;1.60;;;;;;;23.00;61.88;99938.39;1675624;85;21152;-55
2021/07/10 05:10:32;;;;;;;2.30;1.47;;;;;;;23.10;61.75;99933.37;1685223;83;20924;-57
2021/07/10 05:12:59;;;;;;;2.83;2.40;;;;;;;23.17;61.71;99929.88;1682975;83;21008;-56
2021/07/10 05:15:26;;;;;;;8.18;1.92;;;;;;;23.27;61.89;99935.34;1683640;83;20943;-55
2021/07/10 05:17:53;;;;;;;4.10;1.22;;;;;;;23.37;61.98;99927.93;1678673;83;20971;-56
2021/07/10 05:20:19;;;;;;;3.22;2.05;;;;;;;23.47;61.87;99926.52;1649533;85;21312;-57
2021/07/10 05:22:45;;;;;;;3.50;1.62;;;;;;;23.60;61.83;99932.55;1705654;82;20988;-57
2021/07/10 05:25:12;;;;;;;6.40;1.92;;;;;;;23.72;61.99;99932.71;1705499;82;21035;-57
2021/07/10 05:27:39;;;;;;;8.10;2.30;;;;;;;23.84;61.47;99938.33;1674707;83;21478;-56
2021/07/10 05:30:10;;;;;;;2.55;1.50;;;;;;;23.96;61.41;99945.36;1700280;82;21130;-56
2021/07/10 05:32:37;;;;;;;1.80;1.45;;;;;;;24.07;60.66;99938.78;1704119;82;21606;-57
2021/07/10 05:35:07;;;;;;;3.83;1.37;;;;;;;24.19;60.08;99936.66;1703021;82;21664;-58
2021/07/10 05:37:33;;;;;;;3.05;1.20;;;;;;;24.27;59.66;99930.76;1704866;82;21791;-59
2021/07/10 05:40:00;;;;;;;1.72;1.45;;;;;;;24.36;58.93;99934.45;1670386;83;22007;-55
2021/07/10 05:42:27;;;;;;;4.28;1.40;;;;;;;24.43;58.84;99930.91;1704282;82;21521;-58
2021/07/10 05:44:53;;;;;;;27.35;2.33;;;;;;;24.51;58.28;99940.61;1708967;82;21094;-55
2021/07/10 05:47:20;;;;;;;1.35;1.20;;;;;;;24.58;57.91;99944.99;1707039;82;21057;-55
2021/07/10 05:49:46;;;;;;;1.85;1.10;;;;;;;24.63;57.87;99949.50;1703736;82;21109;-55
2021/07/10 05:52:13;;;;;;;2.45;1.12;;;;;;;24.68;57.42;99944.36;1705429;82;21114;-57
2021/07/10 05:54:39;;;;;;;2.08;1.10;;;;;;;24.73;57.74;99943.39;1702616;82;21104;-56
2021/07/10 05:57:06;;;;;;;1.52;1.22;;;;;;;24.81;57.47;99945.34;1669477;83;21637;-56
2021/07/10 05:59:34;;;;;;;2.75;1.57;;;;;;;24.88;57.21;99941.79;1668822;83;21060;-56
2021/07/10 06:02:06;;;;;;;2.40;1.27;;;;;;;24.96;56.76;99945.66;1667137;83;21074;-56
2021/07/10 06:04:30;;;;;;;2.20;1.27;;;;;;;25.05;56.99;99942.80;1665686;84;21106;-58
2021/07/10 06:06:56;;;;;;;1.45;1.35;;;;;;;25.13;56.19;99944.73;1668757;83;22431;-56
2021/07/10 06:09:23;;;;;;;10.03;1.30;;;;;;;25.20;55.59;99944.44;1669358;83;21163;-57
2021/07/10 06:11:49;;;;;;;1.40;1.27;;;;;;;25.28;55.79;99954.13;1667306;83;21106;-58
2021/07/10 06:14:16;;;;;;;2.27;1.40;;;;;;;25.35;55.28;99951.06;1667766;83;21143;-58
2021/07/10 06:16:42;;;;;;;2.15;1.10;;;;;;;25.44;55.59;99950.08;1673109;83;21400;-59
2021/07/10 06:19:09;;;;;;;1.30;1.05;;;;;;;25.51;55.43;99948.42;1726994;82;21950;-58
2021/07/10 06:21:36;;;;;;;2.02;1.40;;;;;;;25.59;55.62;99954.52;1727754;81;21374;-55
2021/07/10 06:24:03;;;;;;;3.95;1.17;;;;;;;25.65;54.89;99947.47;1726362;82;21061;-58
2021/07/10 06:26:30;;;;;;;6.03;1.10;;;;;;;25.70;53.94;99945.06;1728829;81;21192;-56
2021/07/10 06:28:56;;;;;;;3.60;1.20;;;;;;;25.76;54.46;99947.19;1725324;81;21523;-59
2021/07/10 06:31:22;;;;;;;1.67;1.07;;;;;;;25.81;54.05;99948.91;1727538;82;21070;-57
2021/07/10 06:33:49;;;;;;;1.90;1.15;;;;;;;25.88;53.86;99949.97;1728673;81;21115;-54
2021/07/10 06:36:15;;;;;;;5.95;1.95;;;;;;;25.95;53.46;99949.64;1731870;82;21067;-55
2021/07/10 06:38:42;;;;;;;5.17;1.30;;;;;;;26.02;53.29;99952.11;1727876;81;21058;-57
2021/07/10 06:41:08;;;;;;;2.35;0.98;;;;;;;26.09;52.56;99944.88;1728019;81;21063;-59
2021/07/10 06:43:35;;;;;;;3.37;0.95;;;;;;;26.16;52.13;99937.65;1730274;82;21116;-56
2021/07/10 06:46:02;;;;;;;9.93;1.72;;;;;;;26.25;52.46;99940.77;1726701;81;21363;-57
2021/07/10 06:48:29;;;;;;;1.10;1.00;;;;;;;26.31;51.60;99942.01;1725583;81;21373;-58
2021/07/10 06:50:55;;;;;;;2.33;0.90;;;;;;;26.38;51.00;99945.30;1726373;82;22488;-58
2021/07/10 06:53:22;;;;;;;1.40;0.90;;;;;;;26.45;50.80;99943.25;1723851;81;22078;-56
2021/07/10 06:55:49;;;;;;;2.02;0.90;;;;;;;26.51;50.79;99949.46;1730853;82;21061;-59
2021/07/10 06:58:15;;;;;;;23.45;1.77;;;;;;;26.58;50.43;99947.22;1727060;81;21537;-58
2021/07/10 07:00:42;;;;;;;2.98;0.78;;;;;;;26.65;50.41;99952.39;1728981;81;21061;-59
2021/07/10 07:03:09;;;;;;;1.27;0.70;;;;;;;26.74;49.69;99954.13;1723605;81;21083;-58
2021/07/10 07:05:35;;;;;;;1.67;1.10;;;;;;;26.82;49.41;99957.40;1703826;82;20970;-59
2021/07/10 07:08:01;;;;;;;10.35;1.10;;;;;;;26.89;48.90;99956.18;1729516;82;21094;-57
2021/07/10 07:10:28;;;;;;;6.45;1.00;;;;;;;26.96;48.87;99950.37;1727573;81;21627;-58
2021/07/10 07:12:55;;;;;;;1.15;0.90;;;;;;;27.01;49.25;99942.41;1725804;81;22284;-56
2021/07/10 07:15:22;;;;;;;3.77;0.88;;;;;;;27.07;48.19;99942.56;1726453;81;22292;-58
2021/07/10 07:17:48;;;;;;;1.85;0.80;;;;;;;27.11;48.57;99947.23;1729776;80;21077;-57
2021/07/10 07:20:15;;;;;;;1.22;0.90;;;;;;;27.19;49.03;99949.12;1697948;83;21095;-56
2021/07/10 07:22:44;;;;;;;1.10;1.00;;;;;;;27.25;48.78;99939.59;1733527;82;21701;-57
2021/07/10 07:25:11;;;;;;;1.98;0.80;;;;;;;27.31;48.52;99941.64;1733147;81;21318;-58
2021/07/10 07:27:38;;;;;;;12.33;1.15;;;;;;;27.37;48.38;99935.43;1698603;83;21126;-58
2021/07/10 07:31:49;;;;;;;1.35;0.80;;;;;;;27.52;48.01;99931.41;1857574;74;22576;-56
2021/07/10 07:36:55;;;;;;;1.00;0.90;;;;;;;27.64;47.17;99930.02;1846344;75;21948;-56
2021/07/10 07:39:22;;;;;;;2.10;0.90;;;;;;;27.67;46.89;99932.92;1812313;77;20985;-55
2021/07/10 07:41:50;;;;;;;2.55;0.90;;;;;;;27.72;47.12;99935.52;1799808;77;23011;-56
2021/07/10 07:44:16;;;;;;;1.72;1.00;;;;;;;27.76;46.35;99931.85;1749271;80;21012;-56
2021/07/10 07:46:43;;;;;;;2.17;0.93;;;;;;;27.79;46.20;99935.66;1745334;80;20956;-57
2021/07/10 07:49:09;;;;;;;4.55;1.00;;;;;;;27.80;45.36;99931.33;1746863;80;20959;-55
2021/07/10 07:51:37;;;;;;;1.05;0.90;;;;;;;27.82;45.45;99936.66;1740241;80;20945;-58
2021/07/10 07:54:04;;;;;;;2.62;0.90;;;;;;;27.85;44.99;99930.77;1744216;80;21147;-57
2021/07/10 07:56:30;;;;;;;2.62;0.93;;;;;;;27.90;45.65;99936.64;1737848;80;21057;-59
2021/07/10 07:58:56;;;;;;;2.35;0.93;;;;;;;27.96;45.46;99933.14;1737090;80;20988;-59
2021/07/10 08:01:23;;;;;;;2.25;0.82;;;;;;;28.03;44.51;99931.38;1735696;80;21605;-57
2021/07/10 08:03:51;;;;;;;1.10;1.00;;;;;;;28.08;44.13;99928.91;1739300;80;21326;-58
2021/07/10 08:06:17;;;;;;;2.65;0.88;;;;;;;28.08;43.75;99930.81;1738842;80;21139;-56
2021/07/10 08:08:45;;;;;;;1.22;0.90;;;;;;;28.07;43.84;99932.71;1740696;80;21090;-56
2021/07/10 08:11:13;;;;;;;2.02;1.10;;;;;;;28.05;43.18;99927.05;1744248;80;21051;-56
2021/07/10 08:13:39;;;;;;;0.93;0.90;;;;;;;28.06;43.02;99932.92;1745290;80;21091;-55
2021/07/10 08:16:08;;;;;;;0.88;0.80;;;;;;;28.09;42.40;99938.07;1711067;81;21456;-60
2021/07/10 08:18:35;;;;;;;0.90;0.80;;;;;;;28.12;41.96;99935.81;1739871;80;21139;-59
2021/07/10 08:21:02;;;;;;;1.10;1.00;;;;;;;28.20;42.36;99939.09;1729838;80;21129;-57
2021/07/10 08:23:29;;;;;;;1.00;0.90;;;;;;;28.27;41.11;99937.30;1730229;80;21108;-56
2021/07/10 08:25:55;;;;;;;2.98;0.90;;;;;;;28.34;41.65;99934.14;1729585;80;20941;-58
2021/07/10 08:28:21;;;;;;;2.55;0.78;;;;;;;28.45;41.99;99938.39;1730016;80;21616;-59
2021/07/10 08:30:48;;;;;;;1.00;0.90;;;;;;;28.52;41.03;99929.69;1729496;80;21121;-57
2021/07/10 08:33:14;;;;;;;0.88;0.88;;;;;;;28.57;41.32;99935.55;1729426;80;21078;-57
2021/07/10 08:35:41;;;;;;;1.62;0.85;;;;;;;28.57;41.16;99936.41;1739315;79;21131;-56
2021/07/10 08:38:09;;;;;;;1.00;0.88;;;;;;;28.59;41.97;99929.27;1745752;79;21346;-56
2021/07/10 08:40:36;;;;;;;1.35;0.93;;;;;;;28.60;42.03;99940.17;1741540;79;21042;-57
2021/07/10 08:43:03;;;;;;;4.08;0.93;;;;;;;28.59;42.08;99934.81;1748239;79;20940;-60
2021/07/10 08:45:33;;;;;;;9.68;0.93;;;;;;;28.59;41.88;99934.30;1745003;79;21035;-58
2021/07/10 08:48:02;;;;;;;1.32;0.80;;;;;;;28.61;41.71;99939.13;1742891;79;21123;-56
2021/07/10 08:50:29;;;;;;;1.00;0.80;;;;;;;28.63;41.06;99933.94;1745459;79;20956;-54
2021/07/10 08:52:55;;;;;;;1.20;0.78;;;;;;;28.63;42.61;99938.09;1746577;80;21071;-58
2021/07/10 08:55:21;;;;;;;1.10;0.90;;;;;;;28.61;41.64;99932.73;1743153;79;21163;-57
2021/07/10 08:57:48;;;;;;;4.08;1.00;;;;;;;28.57;41.75;99928.11;1742493;80;21091;-56
2021/07/10 09:00:20;;;;;;;2.58;0.80;;;;;;;28.58;41.51;99932.56;1747370;80;20948;-56
2021/07/10 09:02:49;;;;;;;2.05;0.90;;;;;;;28.62;41.95;99935.84;1745855;80;21451;-57
2021/07/10 09:05:16;;;;;;;3.15;1.00;;;;;;;28.62;41.72;99933.07;1744689;80;21126;-55
2021/07/10 09:08:25;;;;;;;3.47;0.80;;;;;;;28.68;42.59;99932.84;1745239;80;21022;-56
2021/07/10 09:11:03;;;;;;;0.80;0.70;;;;;;;28.71;41.12;99923.65;1740835;80;21072;-57
2021/07/10 09:13:40;;;;;;;1.22;1.00;;;;;;;28.76;41.06;99930.00;1735062;80;21739;-58
2021/07/10 09:16:17;;;;;;;3.00;0.80;;;;;;;28.80;41.18;99929.49;1727493;80;21065;-56
2021/07/10 09:19:01;;;;;;;4.78;1.00;;;;;;;28.76;40.94;99927.23;1735716;80;21104;-54
2021/07/10 09:21:50;;;;;;;0.80;0.80;;;;;;;28.69;40.34;99924.87;1734054;80;21069;-54
2021/07/10 09:24:28;;;;;;;1.27;0.90;;;;;;;28.65;41.09;99924.41;1737219;80;21057;-56
2021/07/10 09:26:58;;;;;;;2.85;1.00;;;;;;;28.64;41.44;99924.58;1730051;80;21065;-56
2021/07/10 09:29:28;;;;;;;0.98;0.80;;;;;;;28.68;42.27;99922.63;1734531;80;21131;-55
2021/07/10 09:32:04;;;;;;;1.00;0.90;;;;;;;28.75;42.65;99918.61;1739771;80;21412;-55
2021/07/10 09:34:39;;;;;;;2.37;0.93;;;;;;;28.84;41.33;99921.12;1730468;80;22340;-56
2021/07/10 09:37:12;;;;;;;7.12;1.12;;;;;;;28.96;41.16;99911.33;1726531;80;21061;-55
2021/07/10 09:39:42;;;;;;;;;;;;;;;29.10;40.78;99917.93;1732859;80;21088;-56
2021/07/10 09:42:09;;;;;;;2.35;0.90;;;;;;;29.23;40.39;99911.75;1733932;80;20161;-56
2021/07/10 09:44:46;;;;;;;2.90;0.85;;;;;;;29.33;39.79;99915.11;1728278;80;21077;-58
2021/07/10 09:47:14;;;;;;;4.15;1.00;;;;;;;29.42;39.64;99913.13;1739447;80;21136;-55
2021/07/10 09:49:45;;;;;;;2.42;0.80;;;;;;;29.48;39.29;99911.83;1741246;80;21518;-58
2021/07/10 09:52:15;;;;;;;2.00;1.20;;;;;;;29.55;39.23;99904.98;1717784;81;21156;-56
2021/07/10 09:54:47;;;;;;;2.55;0.85;;;;;;;29.61;38.73;99901.44;1715883;81;21104;-56
2021/07/10 09:57:22;;;;;;;1.07;0.80;;;;;;;29.69;39.01;99905.48;1716095;81;21089;-56
2021/07/10 09:59:52;;;;;;;1.00;0.90;;;;;;;29.76;38.48;99898.14;1719565;81;21161;-56
2021/07/10 10:02:29;;;;;;;1.72;0.90;;;;;;;29.84;38.41;99901.33;1720687;81;21033;-57
2021/07/10 10:05:11;;;;;;;1.35;0.90;;;;;;;29.88;39.40;99904.03;1698845;81;21118;-57
2021/07/10 10:07:48;;;;;;;2.85;0.80;;;;;;;29.94;38.67;99898.59;1721783;80;21053;-59
2021/07/10 10:10:27;;;;;;;1.62;0.80;;;;;;;29.98;38.72;99890.22;1713885;81;21093;-57
2021/07/10 10:13:08;;;;;;;1.45;0.90;;;;;;;30.02;38.00;99902.66;1700160;81;22142;-57
2021/07/10 10:15:44;;;;;;;2.37;1.15;;;;;;;30.05;37.71;99897.23;1727472;80;20908;-57
2021/07/10 10:18:16;;;;;;;2.25;1.32;;;;;;;30.08;38.25;99893.55;1737619;80;20953;-58
2021/07/10 10:20:44;;;;;;;0.80;0.80;;;;;;;30.13;38.27;99882.36;1706702;81;21161;-54
2021/07/10 10:23:11;;;;;;;2.72;0.98;;;;;;;30.17;38.54;99886.48;1743246;80;21768;-58
2021/07/10 10:25:37;;;;;;;2.40;0.80;;;;;;;30.16;37.75;99887.01;1740799;80;21947;-57
2021/07/10 10:28:07;;;;;;;2.25;1.00;;;;;;;30.13;37.28;99883.75;1741441;80;22574;-57
2021/07/10 10:30:33;;;;;;;5.72;0.90;;;;;;;30.10;37.30;99883.64;1742828;80;21095;-55
2021/07/10 10:32:59;;;;;;;1.35;0.88;;;;;;;30.09;38.07;99874.98;1743175;80;21049;-57
2021/07/10 10:35:26;;;;;;;3.05;1.00;;;;;;;30.13;37.90;99880.98;1712082;81;21068;-58
2021/07/10 10:37:52;;;;;;;3.35;0.80;;;;;;;30.16;37.93;99877.82;1748120;80;21149;-60
2021/07/10 10:40:23;;;;;;;1.00;0.70;;;;;;;30.21;37.92;99880.85;1752872;80;21483;-58
2021/07/10 10:42:55;;;;;;;2.00;1.10;;;;;;;30.26;37.87;99869.50;1731284;80;20874;-57
2021/07/10 10:45:30;;;;;;;2.15;0.88;;;;;;;30.30;36.92;99868.56;1735432;80;20895;-55
2021/07/10 10:47:58;;;;;;;3.83;0.70;;;;;;;30.25;36.45;99869.70;1733535;80;21532;-57
2021/07/10 10:50:32;;;;;;;1.57;1.32;;;;;;;30.24;36.10;99868.84;1739385;80;21073;-57
2021/07/10 10:52:58;;;;;;;1.00;0.80;;;;;;;30.23;36.16;99862.09;1739827;80;20942;-57
2021/07/10 10:55:36;;;;;;;1.55;0.78;;;;;;;30.19;35.50;99859.39;1735272;80;21302;-58
2021/07/10 10:58:26;;;;;;;3.72;1.05;;;;;;;30.17;35.20;99856.80;1739990;80;20886;-57
2021/07/10 11:01:03;;;;;;;1.35;0.80;;;;;;;30.18;36.75;99857.67;1736316;80;21300;-59
2021/07/10 11:03:36;;;;;;;3.33;0.88;;;;;;;30.22;36.83;99855.67;1736397;80;21097;-61
2021/07/10 11:06:03;;;;;;;1.20;1.00;;;;;;;30.27;38.04;99854.57;1743212;80;21179;-58
2021/07/10 11:08:35;;;;;;;6.17;0.98;;;;;;;30.35;37.99;99854.96;1737960;80;21060;-58
2021/07/10 11:11:07;;;;;;;12.95;1.10;;;;;;;30.41;37.68;99856.41;1729133;80;21115;-59
2021/07/10 11:13:44;;;;;;;0.98;0.82;;;;;;;30.49;38.79;99855.41;1735230;80;21706;-57
2021/07/10 11:16:19;;;;;;;1.80;0.82;;;;;;;30.55;37.77;99855.16;1740870;80;21165;-59
2021/07/10 11:18:58;;;;;;;1.57;0.80;;;;;;;30.57;37.31;99848.35;1737666;80;21523;-58
2021/07/10 11:21:41;;;;;;;2.98;0.80;;;;;;;30.58;37.06;99853.38;1737388;80;21081;-56
2021/07/10 11:24:20;;;;;;;2.35;0.80;;;;;;;30.57;36.27;99846.96;1734941;80;21773;-58
2021/07/10 11:27:02;;;;;;;1.75;0.72;;;;;;;30.60;38.20;99843.80;1737229;80;21509;-59
2021/07/10 11:29:39;;;;;;;0.90;0.90;;;;;;;30.63;37.19;99841.98;1743155;80;22535;-58
2021/07/10 11:32:15;;;;;;;4.30;0.90;;;;;;;30.68;36.49;99840.02;1751988;80;21064;-56
2021/07/10 11:34:56;;;;;;;1.80;0.90;;;;;;;30.65;36.63;99838.48;1755467;80;21067;-59
2021/07/10 11:37:30;;;;;;;1.77;0.90;;;;;;;30.66;35.34;99837.42;1738206;80;21008;-56
2021/07/10 11:39:59;;;;;;;2.45;0.88;;;;;;;30.64;35.44;99833.13;1736052;80;21073;-55
2021/07/10 11:42:31;;;;;;;1.87;1.02;;;;;;;30.63;35.67;99832.27;1738319;80;21136;-57